Time;durP1;ratioP1;P1;durP2;ratioP2;P2;SDS_P1;SDS_P2;PMS_P1;PMS_P2;Temp;Humidity;BMP_temperature;BMP_pressure;BME280_temperature;BME280_humidity;BME280_pressure;Samples;Min_cycle;Max_cycle;Signal;HPM_P1;HPM_P2
2023/03/04 00:01:06;;;;;;;23.70;14.20;;;;;;;3.65;65.89;100373.80;107787;1251;75716;-84
2023/03/04 00:03:36;;;;;;;21.40;14.20;;;;;;;3.64;65.70;100364.65;107083;1251;63808;-83
2023/03/04 00:06:04;;;;;;;17.40;12.20;;;;;;;3.66;66.07;100367.18;106116;1251;73359;-86
2023/03/04 00:08:35;;;;;;;20.00;13.50;;;;;;;3.70;66.00;100358.39;105965;1251;60524;-87
2023/03/04 00:11:02;;;;;;;20.50;14.20;;;;;;;3.74;66.20;100354.95;106027;1251;62162;-83
2023/03/04 00:13:29;;;;;;;20.90;13.40;;;;;;;3.79;65.91;100354.98;106446;1251;73661;-83
2023/03/04 00:15:57;;;;;;;17.70;14.20;;;;;;;3.81;65.64;100352.66;106426;1251;63192;-84
2023/03/04 00:18:25;;;;;;;20.90;14.80;;;;;;;3.83;65.37;100351.20;106593;1251;73607;-83
2023/03/04 00:20:52;;;;;;;21.20;14.90;;;;;;;3.84;65.48;100343.36;109759;1251;58300;-84
2023/03/04 00:23:19;;;;;;;24.50;14.60;;;;;;;3.87;65.33;100345.86;109797;1251;59952;-84
2023/03/04 00:25:49;;;;;;;25.00;15.30;;;;;;;3.89;65.33;100343.02;109710;1251;73437;-84
2023/03/04 00:28:18;;;;;;;23.00;15.40;;;;;;;3.89;65.13;100338.67;109421;1255;62859;-83
2023/03/04 00:30:45;;;;;;;25.00;15.80;;;;;;;3.89;65.07;100337.98;106994;1251;73362;-83
2023/03/04 00:33:12;;;;;;;26.80;16.70;;;;;;;3.90;65.29;100336.42;108467;1251;59409;-83
2023/03/04 00:35:40;;;;;;;21.60;14.70;;;;;;;3.89;65.30;100333.48;109136;1251;60154;-83
2023/03/04 00:38:08;;;;;;;22.90;14.50;;;;;;;3.88;65.05;100326.79;107630;1251;75062;-83
2023/03/04 00:40:36;;;;;;;22.10;15.50;;;;;;;3.87;65.18;100329.61;109212;1251;63643;-84
2023/03/04 00:43:04;;;;;;;23.20;15.20;;;;;;;3.86;65.16;100332.75;108378;1255;72659;-84
2023/03/04 00:45:32;;;;;;;20.30;14.10;;;;;;;3.85;65.03;100331.75;107038;1251;60909;-85
2023/03/04 00:48:05;;;;;;;21.50;13.60;;;;;;;3.84;65.11;100326.96;106338;1251;60480;-85
2023/03/04 00:50:34;;;;;;;21.00;14.50;;;;;;;3.82;65.03;100325.13;106396;1251;74809;-84
2023/03/04 00:53:02;;;;;;;25.20;16.80;;;;;;;3.80;65.13;100330.91;106445;1251;64951;-85
2023/03/04 00:55:31;;;;;;;27.60;16.80;;;;;;;3.76;65.17;100327.08;106216;1253;73604;-85
2023/03/04 00:57:58;;;;;;;26.00;18.90;;;;;;;3.73;64.99;100328.38;106302;1251;60476;-84
2023/03/04 01:00:25;;;;;;;26.60;15.40;;;;;;;3.69;65.11;100327.31;106238;1253;61972;-84
2023/03/04 01:02:53;;;;;;;23.10;16.70;;;;;;;3.66;65.06;100324.34;106595;1251;75029;-84
2023/03/04 01:05:22;;;;;;;24.20;16.60;;;;;;;3.62;65.02;100325.31;107454;1251;64769;-84
2023/03/04 01:07:50;;;;;;;26.10;16.90;;;;;;;3.58;65.18;100319.95;107104;1251;73179;-81
2023/03/04 01:10:27;;;;;;;24.50;15.70;;;;;;;3.54;65.30;100320.77;109609;1251;59716;-82
2023/03/04 01:12:54;;;;;;;29.00;18.20;;;;;;;3.52;65.39;100317.04;109397;1251;59912;-81
2023/03/04 01:15:23;;;;;;;30.60;21.30;;;;;;;3.49;65.56;100311.25;107831;1255;73224;-82
2023/03/04 01:17:53;;;;;;;26.30;16.70;;;;;;;3.48;65.70;100309.23;106241;1251;64743;-83
2023/03/04 01:20:21;;;;;;;23.00;15.00;;;;;;;3.44;65.66;100308.69;105953;1255;73809;-84
2023/03/04 01:22:48;;;;;;;21.00;15.00;;;;;;;3.40;65.93;100315.92;106090;1251;60790;-84
2023/03/04 01:25:15;;;;;;;20.50;13.60;;;;;;;3.35;66.03;100316.80;106083;1253;60594;-85
2023/03/04 01:27:42;;;;;;;24.10;15.20;;;;;;;3.29;66.28;100318.36;106096;1252;74680;-84
2023/03/04 01:30:13;;;;;;;25.90;18.00;;;;;;;3.25;66.27;100318.54;105925;1251;64740;-84
2023/03/04 01:32:42;;;;;;;27.50;17.50;;;;;;;3.19;66.51;100320.27;106173;1251;73454;-87
2023/03/04 01:35:09;;;;;;;26.70;19.60;;;;;;;3.14;66.60;100324.75;106140;1251;60556;-86
2023/03/04 01:37:35;;;;;;;26.60;17.40;;;;;;;3.09;66.74;100328.53;106034;1251;60441;-85
2023/03/04 01:40:04;;;;;;;26.50;18.20;;;;;;;3.04;66.86;100329.25;106206;1251;74274;-84
2023/03/04 01:42:33;;;;;;;28.70;17.40;;;;;;;2.97;67.20;100337.73;106153;1255;64876;-86
2023/03/04 01:45:00;;;;;;;23.90;15.80;;;;;;;2.93;67.57;100335.83;106008;1252;73868;-86
2023/03/04 01:47:29;;;;;;;23.50;14.50;;;;;;;2.89;67.59;100334.56;106040;1254;60575;-84
2023/03/04 01:49:56;;;;;;;23.30;16.20;;;;;;;2.87;67.78;100337.23;106251;1253;60454;-84
2023/03/04 01:52:24;;;;;;;20.80;12.90;;;;;;;2.86;67.74;100342.27;106856;1252;73725;-82
2023/03/04 01:54:53;;;;;;;19.80;13.50;;;;;;;2.83;67.83;100339.94;106338;1255;65272;-83
2023/03/04 01:57:22;;;;;;;22.20;15.30;;;;;;;2.79;67.83;100343.16;106200;1251;74240;-84
2023/03/04 02:00:21;;;;;;;26.80;17.80;;;;;;;2.74;67.89;100346.09;106248;1255;60447;-82
2023/03/04 02:02:50;;;;;;;37.70;22.60;;;;;;;2.66;68.03;100343.77;106106;1251;61682;-85
2023/03/04 02:05:17;;;;;;;36.50;24.10;;;;;;;2.57;68.11;100341.47;106661;1251;75446;-84
2023/03/04 02:07:44;;;;;;;32.60;22.70;;;;;;;2.48;68.46;100342.41;107574;1251;65476;-85
2023/03/04 02:10:11;;;;;;;38.70;21.60;;;;;;;2.43;68.72;100342.42;106925;1253;72538;-85
2023/03/04 02:12:40;;;;;;;29.80;18.20;;;;;;;2.37;68.95;100342.62;106192;1251;62325;-85
2023/03/04 02:15:07;;;;;;;26.80;17.50;;;;;;;2.33;69.32;100338.77;106211;1255;60439;-85
2023/03/04 02:17:41;;;;;;;30.00;19.90;;;;;;;2.30;69.67;100339.38;107901;1251;73521;-82
2023/03/04 02:20:17;;;;;;;26.80;18.50;;;;;;;2.30;69.79;100337.64;106900;1253;64719;-83
2023/03/04 02:22:51;;;;;;;33.90;21.70;;;;;;;2.30;70.07;100332.98;106116;1253;73511;-84
2023/03/04 02:25:22;;;;;;;31.00;20.90;;;;;;;2.30;70.03;100333.66;106002;1251;60456;-84
2023/03/04 02:27:49;;;;;;;31.20;20.30;;;;;;;2.30;70.15;100331.61;106067;1251;61751;-86
2023/03/04 02:30:19;;;;;;;30.90;19.50;;;;;;;2.28;70.06;100335.95;105998;1251;74740;-84
2023/03/04 02:32:47;;;;;;;28.10;17.90;;;;;;;2.25;70.07;100337.10;106036;1255;64737;-85
2023/03/04 02:35:17;;;;;;;25.50;16.30;;;;;;;2.21;69.94;100335.33;105977;1253;72606;-85
2023/03/04 02:37:44;;;;;;;29.00;17.30;;;;;;;2.15;70.09;100333.27;106110;1251;60451;-85
2023/03/04 02:40:21;;;;;;;31.40;19.80;;;;;;;2.10;70.40;100333.27;106004;1251;60555;-84
2023/03/04 02:42:47;;;;;;;32.60;20.30;;;;;;;2.04;70.45;100327.02;106036;1255;73845;-84
2023/03/04 02:45:43;;;;;;;39.20;22.10;;;;;;;2.00;70.66;100328.70;106048;1256;65288;-83
2023/03/04 02:48:19;;;;;;;31.80;21.00;;;;;;;1.97;71.01;100327.41;107911;1251;73576;-83
2023/03/04 02:50:51;;;;;;;35.80;21.80;;;;;;;1.96;71.17;100327.09;107611;1253;60550;-84
2023/03/04 02:53:19;;;;;;;33.50;21.60;;;;;;;1.96;71.27;100325.20;107250;1251;60403;-84
2023/03/04 02:55:47;;;;;;;54.00;31.70;;;;;;;1.98;71.31;100325.48;106563;1251;75316;-82
2023/03/04 02:58:17;;;;;;;31.90;21.60;;;;;;;1.99;71.22;100330.96;106595;1255;64735;-82
2023/03/04 03:00:44;;;;;;;26.70;16.80;;;;;;;1.99;71.24;100332.70;106318;1251;72606;-83
2023/03/04 03:03:11;;;;;;;26.30;16.70;;;;;;;1.96;71.20;100334.35;105980;1251;60529;-85
2023/03/04 03:05:39;;;;;;;27.70;17.90;;;;;;;1.90;71.15;100333.48;106094;1251;61289;-84
2023/03/04 03:08:06;;;;;;;24.80;16.60;;;;;;;1.83;71.33;100334.38;106071;1257;74879;-84
2023/03/04 03:10:34;;;;;;;31.20;17.60;;;;;;;1.75;71.60;100337.00;106087;1255;64757;-84
2023/03/04 03:13:02;;;;;;;25.80;16.50;;;;;;;1.68;71.72;100335.13;106008;1251;73695;-85
2023/03/04 03:15:32;;;;;;;26.90;17.30;;;;;;;1.60;71.88;100336.04;106006;1257;60947;-84
2023/03/04 03:18:00;;;;;;;26.00;16.20;;;;;;;1.55;72.42;100333.61;106883;1251;61214;-82
2023/03/04 03:20:26;;;;;;;26.90;16.10;;;;;;;1.51;72.74;100330.95;106422;1253;73932;-85
2023/03/04 03:22:54;;;;;;;23.60;15.20;;;;;;;1.49;72.99;100333.77;106521;1251;65289;-85
2023/03/04 03:25:21;;;;;;;24.40;14.10;;;;;;;1.49;73.35;100332.39;107973;1251;72621;-83
2023/03/04 03:27:50;;;;;;;25.50;15.30;;;;;;;1.50;73.41;100331.16;108889;1255;59226;-83
2023/03/04 03:30:17;;;;;;;26.20;15.40;;;;;;;1.50;73.54;100327.53;109124;1251;60803;-82
2023/03/04 03:32:44;;;;;;;28.50;18.00;;;;;;;1.51;73.58;100324.06;109771;1251;73795;-85
2023/03/04 03:35:11;;;;;;;25.00;15.30;;;;;;;1.49;73.49;100324.12;109696;1251;63606;-85
2023/03/04 03:37:38;;;;;;;24.70;16.00;;;;;;;1.46;73.59;100321.27;109331;1251;72516;-85
2023/03/04 03:40:05;;;;;;;29.30;16.60;;;;;;;1.41;73.60;100323.11;109722;1251;58270;-85
2023/03/04 03:42:33;;;;;;;28.70;16.70;;;;;;;1.38;73.66;100322.01;106665;1251;61247;-84
2023/03/04 03:45:02;;;;;;;33.40;20.40;;;;;;;1.35;73.86;100326.05;106339;1251;74633;-85
2023/03/04 03:47:30;;;;;;;35.20;21.80;;;;;;;1.33;74.08;100323.18;106140;1255;64929;-84
2023/03/04 03:49:56;;;;;;;26.50;16.60;;;;;;;1.31;74.25;100322.55;106122;1251;73643;-84
2023/03/04 03:52:24;;;;;;;25.60;15.10;;;;;;;1.30;74.40;100320.84;106100;1255;61849;-85
2023/03/04 03:54:51;;;;;;;25.00;15.80;;;;;;;1.30;74.54;100320.84;106091;1255;60435;-84
2023/03/04 03:57:18;;;;;;;28.40;17.30;;;;;;;1.31;74.67;100321.00;106106;1251;74871;-85
2023/03/04 03:59:45;;;;;;;28.90;19.30;;;;;;;1.32;74.74;100324.25;106043;1255;64633;-83
2023/03/04 04:02:19;;;;;;;38.60;20.30;;;;;;;1.32;74.72;100322.70;105881;1255;73661;-84
2023/03/04 04:04:52;;;;;;;35.00;18.80;;;;;;;1.31;74.74;100318.58;106276;1257;60473;-83
2023/03/04 04:08:17;;;;;;;29.10;20.00;;;;;;;1.29;74.61;100319.67;102702;1292;600738;-84
2023/03/04 04:10:46;;;;;;;31.30;18.60;;;;;;;1.23;74.67;100319.30;106013;1261;62037;-85
2023/03/04 04:13:15;;;;;;;30.10;19.00;;;;;;;1.21;74.75;100323.16;106107;1256;59529;-85
2023/03/04 04:15:53;;;;;;;37.20;21.50;;;;;;;1.17;75.04;100321.36;106166;1256;72365;-83
2023/03/04 04:18:25;;;;;;;34.60;22.80;;;;;;;1.15;75.16;100320.71;105984;1257;63466;-86
2023/03/04 04:20:57;;;;;;;28.50;17.80;;;;;;;1.14;75.50;100319.87;105247;1256;821599;-84
2023/03/04 04:23:26;;;;;;;33.70;19.10;;;;;;;1.15;75.68;100312.80;107809;1258;60941;-84
2023/03/04 04:25:54;;;;;;;27.30;19.40;;;;;;;1.17;75.74;100315.33;106660;1256;59958;-84
2023/03/04 04:28:23;;;;;;;36.70;20.90;;;;;;;1.20;75.69;100315.75;106015;1260;73052;-85
2023/03/04 04:30:52;;;;;;;34.10;20.30;;;;;;;1.23;75.67;100316.55;106196;1259;64723;-84
2023/03/04 04:33:21;;;;;;;31.00;18.90;;;;;;;1.23;75.63;100314.98;107582;1257;73368;-85
2023/03/04 04:35:49;;;;;;;32.40;21.00;;;;;;;1.22;75.59;100317.77;106590;1259;59719;-84
2023/03/04 04:38:17;;;;;;;38.50;20.80;;;;;;;1.20;75.55;100315.41;106301;1257;60321;-85
2023/03/04 04:40:46;;;;;;;31.70;19.40;;;;;;;1.18;75.51;100311.17;106325;1259;74344;-84
2023/03/04 04:43:15;;;;;;;51.10;29.20;;;;;;;1.16;75.63;100311.56;106385;1256;63777;-84
2023/03/04 04:45:44;;;;;;;35.40;20.50;;;;;;;1.15;75.79;100314.70;106303;1254;73548;-84
2023/03/04 04:48:12;;;;;;;38.70;21.80;;;;;;;1.15;75.95;100310.58;106333;1255;59913;-85
2023/03/04 04:50:40;;;;;;;33.60;20.80;;;;;;;1.17;76.26;100313.42;106193;1258;61215;-86
2023/03/04 04:53:12;;;;;;;41.30;22.80;;;;;;;1.22;76.21;100318.28;106744;1256;74922;-84
2023/03/04 04:55:41;;;;;;;32.30;19.60;;;;;;;1.28;76.38;100317.27;107487;1255;63814;-84
2023/03/04 04:58:11;;;;;;;31.60;19.40;;;;;;;1.34;76.32;100319.70;107733;1256;74241;-85
2023/03/04 05:00:40;;;;;;;29.60;19.10;;;;;;;1.41;76.21;100318.81;108529;1256;59648;-81
2023/03/04 05:03:13;;;;;;;37.80;21.50;;;;;;;1.46;76.06;100320.22;109247;1256;60446;-83
2023/03/04 05:05:45;;;;;;;36.00;21.60;;;;;;;1.50;75.91;100325.63;109349;1253;74085;-84
2023/03/04 05:08:22;;;;;;;30.70;18.20;;;;;;;1.54;75.69;100328.30;107518;1256;63573;-84
2023/03/04 05:10:55;;;;;;;32.50;19.40;;;;;;;1.54;75.60;100329.50;106181;1253;73645;-86
2023/03/04 05:13:25;;;;;;;30.30;18.90;;;;;;;1.56;75.61;100332.55;106240;1253;62435;-85
2023/03/04 05:15:55;;;;;;;36.30;21.10;;;;;;;1.58;75.67;100339.19;106407;1253;61318;-85
2023/03/04 05:18:24;;;;;;;33.00;17.30;;;;;;;1.64;75.85;100341.95;107635;1253;74036;-86
2023/03/04 05:21:00;;;;;;;30.30;17.60;;;;;;;1.88;76.36;100341.64;106839;1257;64914;-86
2023/03/04 05:23:32;;;;;;;27.80;15.80;;;;;;;2.26;76.13;100346.20;106793;1256;73927;-84
2023/03/04 05:26:01;;;;;;;29.50;19.90;;;;;;;2.70;75.54;100349.85;106681;1258;60616;-86
2023/03/04 05:28:30;;;;;;;29.90;16.80;;;;;;;3.06;74.79;100360.09;106233;1253;61468;-85
2023/03/04 05:30:58;;;;;;;29.70;17.80;;;;;;;3.37;73.47;100365.08;106227;1253;73935;-85
2023/03/04 05:33:27;;;;;;;28.50;19.20;;;;;;;3.70;72.66;100363.06;106348;1253;63782;-86
2023/03/04 05:35:55;;;;;;;34.40;18.90;;;;;;;4.10;71.72;100365.95;106101;1258;73679;-86
2023/03/04 05:38:24;;;;;;;28.10;17.60;;;;;;;4.44;70.15;100367.08;106211;1253;59781;-85
2023/03/04 05:40:58;;;;;;;23.50;16.00;;;;;;;4.69;68.80;100366.98;106087;1253;61319;-87
2023/03/04 05:43:26;;;;;;;27.40;16.80;;;;;;;4.93;68.00;100373.62;106158;1253;72983;-87
2023/03/04 05:45:55;;;;;;;29.40;18.20;;;;;;;5.28;67.34;100373.76;106150;1253;63783;-86
2023/03/04 05:48:27;;;;;;;29.70;19.60;;;;;;;5.64;66.16;100374.80;105962;1257;71364;-87
2023/03/04 05:50:56;;;;;;;28.90;18.40;;;;;;;6.04;65.03;100373.40;106172;1253;59756;-86
2023/03/04 05:53:25;;;;;;;22.10;17.00;;;;;;;6.44;63.67;100375.05;105966;1255;61331;-86
2023/03/04 05:55:54;;;;;;;26.70;18.10;;;;;;;6.78;62.27;100378.48;105942;1253;74028;-85
2023/03/04 05:58:22;;;;;;;28.50;18.80;;;;;;;7.05;61.38;100378.72;105965;1257;65118;-85
2023/03/04 06:00:51;;;;;;;29.70;18.80;;;;;;;7.36;60.15;100380.30;106015;1257;73352;-86
2023/03/04 06:03:21;;;;;;;26.90;18.50;;;;;;;7.70;59.04;100378.56;105955;1256;61341;-87
2023/03/04 06:05:49;;;;;;;26.60;18.30;;;;;;;8.10;58.07;100370.53;106274;1253;60269;-82
2023/03/04 06:08:20;;;;;;;30.20;19.60;;;;;;;8.56;57.08;100367.39;106711;1256;72556;-88
2023/03/04 06:10:51;;;;;;;25.80;18.70;;;;;;;9.02;55.78;100369.99;106023;1253;65003;-87
2023/03/04 06:13:25;;;;;;;29.20;21.60;;;;;;;9.46;54.23;100368.86;106249;1258;74855;-87
2023/03/04 06:15:57;;;;;;;29.40;20.60;;;;;;;9.77;52.57;100371.53;106427;1253;59640;-87
2023/03/04 06:18:26;;;;;;;29.40;20.30;;;;;;;10.04;52.05;100373.54;106439;1257;60876;-85
2023/03/04 06:20:59;;;;;;;30.60;20.60;;;;;;;10.39;51.19;100371.38;106604;1253;74103;-87
2023/03/04 06:23:28;;;;;;;32.30;20.80;;;;;;;10.79;50.27;100370.07;109142;1252;63815;-87
2023/03/04 06:25:58;;;;;;;28.20;19.40;;;;;;;11.11;49.12;100372.20;108287;1257;72466;-88
2023/03/04 06:28:26;;;;;;;33.20;20.30;;;;;;;11.34;48.21;100369.90;106274;1258;60328;-89
2023/03/04 06:30:55;;;;;;;27.40;19.50;;;;;;;11.55;47.54;100370.96;106365;1260;60305;-89
2023/03/04 06:33:31;;;;;;;28.60;20.40;;;;;;;11.75;46.86;100364.73;106400;1253;73897;-88
2023/03/04 06:36:00;;;;;;;27.70;19.60;;;;;;;11.92;46.16;100364.76;106102;1261;65103;-87
2023/03/04 06:38:28;;;;;;;27.50;20.60;;;;;;;12.07;45.91;100365.14;108096;1257;73573;-86
2023/03/04 06:41:05;;;;;;;28.10;20.50;;;;;;;12.27;45.43;100362.86;106929;1253;60220;-86
2023/03/04 06:43:34;;;;;;;26.10;19.90;;;;;;;12.52;44.68;100362.81;108026;1252;61097;-87
2023/03/04 06:46:08;;;;;;;30.70;20.30;;;;;;;12.73;44.13;100360.96;109512;1253;72952;-84
2023/03/04 06:48:38;;;;;;;28.50;19.60;;;;;;;12.88;43.75;100359.30;107386;1257;63841;-85
2023/03/04 06:51:08;;;;;;;28.90;19.80;;;;;;;13.03;43.21;100351.85;106577;1254;72486;-87
2023/03/04 06:53:38;;;;;;;24.60;17.60;;;;;;;12.94;42.89;100351.67;106483;1256;61393;-87
2023/03/04 06:56:14;;;;;;;23.00;17.90;;;;;;;12.45;43.09;100352.44;106679;1254;60296;-85
2023/03/04 06:58:46;;;;;;;28.80;20.30;;;;;;;11.95;43.84;100350.36;106583;1256;73755;-85
2023/03/04 07:01:19;;;;;;;25.20;18.30;;;;;;;11.50;44.67;100361.70;106405;1258;64924;-87
2023/03/04 07:03:48;;;;;;;32.50;19.20;;;;;;;11.09;45.48;100358.33;106447;1253;72604;-85
2023/03/04 07:06:19;;;;;;;27.50;18.40;;;;;;;10.70;46.15;100352.98;106340;1257;61080;-87
2023/03/04 07:08:54;;;;;;;29.30;17.90;;;;;;;10.31;47.00;100349.69;106305;1253;61515;-87
2023/03/04 07:11:24;;;;;;;28.40;18.80;;;;;;;10.03;47.71;100350.70;106199;1254;73166;-87
2023/03/04 07:13:52;;;;;;;24.70;17.20;;;;;;;9.69;48.16;100352.29;106179;1259;64835;-87
2023/03/04 07:16:22;;;;;;;28.40;18.10;;;;;;;9.28;48.96;100346.36;106126;1253;72362;-86
2023/03/04 07:18:51;;;;;;;27.20;17.60;;;;;;;8.92;49.99;100343.92;106610;1258;59832;-85
2023/03/04 07:21:25;;;;;;;24.90;16.80;;;;;;;8.63;50.56;100342.42;106588;1254;60111;-86
2023/03/04 07:23:54;;;;;;;25.10;17.80;;;;;;;8.29;51.33;100345.65;106241;1256;74017;-85
2023/03/04 07:26:22;;;;;;;25.00;17.00;;;;;;;8.02;52.05;100343.10;106273;1257;65126;-84
2023/03/04 07:28:56;;;;;;;32.00;21.90;;;;;;;7.93;52.90;100344.33;106194;1254;72549;-86
2023/03/04 07:31:28;;;;;;;27.50;18.80;;;;;;;8.15;53.53;100344.34;106532;1253;60526;-84
2023/03/04 07:34:02;;;;;;;24.00;17.70;;;;;;;8.65;52.89;100344.07;106562;1253;60271;-87
2023/03/04 07:36:32;;;;;;;26.50;18.40;;;;;;;9.21;51.94;100343.11;106362;1257;73050;-86
2023/03/04 07:39:01;;;;;;;27.10;17.10;;;;;;;9.75;50.69;100339.86;106135;1253;63752;-87
2023/03/04 07:41:30;;;;;;;24.40;18.40;;;;;;;10.35;49.57;100340.33;106667;1255;73352;-85
2023/03/04 07:43:58;;;;;;;24.00;17.20;;;;;;;10.95;48.22;100343.69;106493;1259;60110;-87
2023/03/04 07:46:27;;;;;;;19.80;16.10;;;;;;;11.47;47.08;100340.55;106391;1256;61198;-88
2023/03/04 07:48:55;;;;;;;24.80;16.40;;;;;;;12.05;46.01;100341.09;106293;1258;73625;-88
2023/03/04 07:51:31;;;;;;;23.10;15.90;;;;;;;12.62;44.80;100335.41;106827;1258;64864;-88
2023/03/04 07:54:01;;;;;;;22.00;15.80;;;;;;;13.10;44.04;100335.23;107686;1253;72444;-86
2023/03/04 07:56:32;;;;;;;21.40;16.10;;;;;;;13.64;43.33;100330.05;107843;1252;60190;-86
2023/03/04 07:59:02;;;;;;;23.60;17.20;;;;;;;14.20;41.69;100323.62;107604;1257;60002;-86
2023/03/04 08:01:35;;;;;;;24.30;17.50;;;;;;;14.60;40.70;100318.77;106481;1253;73053;-88
2023/03/04 08:04:05;;;;;;;37.60;26.50;;;;;;;14.97;39.72;100320.88;106011;1258;63651;-86
2023/03/04 08:06:35;;;;;;;23.80;18.60;;;;;;;15.30;39.22;100317.92;106044;1256;71570;-86
2023/03/04 08:09:07;;;;;;;22.40;16.90;;;;;;;15.59;38.43;100317.02;105837;1269;61597;-87
2023/03/04 08:11:37;;;;;;;20.90;15.00;;;;;;;15.85;38.18;100315.85;106009;1256;61204;-89
2023/03/04 08:14:06;;;;;;;20.50;15.90;;;;;;;16.13;37.57;100312.68;105838;1261;74001;-85
2023/03/04 08:16:34;;;;;;;18.40;14.50;;;;;;;16.27;36.68;100306.70;105919;1261;63820;-86
2023/03/04 08:19:04;;;;;;;18.80;16.10;;;;;;;16.32;36.47;100310.86;106021;1256;73386;-88
2023/03/04 08:21:32;;;;;;;19.40;16.20;;;;;;;16.42;36.19;100301.11;105884;1258;60558;-89
2023/03/04 08:24:06;;;;;;;16.90;14.90;;;;;;;16.48;35.54;100299.73;105971;1259;60536;-86
2023/03/04 08:26:40;;;;;;;18.70;15.50;;;;;;;16.41;35.35;100294.86;105985;1258;74516;-86
2023/03/04 08:29:14;;;;;;;18.70;14.60;;;;;;;16.33;35.67;100293.66;105951;1258;63757;-88
2023/03/04 08:31:45;;;;;;;16.10;14.30;;;;;;;16.38;35.65;100288.84;105867;1257;72691;-86
2023/03/04 08:34:17;;;;;;;15.80;13.00;;;;;;;16.47;35.39;100286.73;106143;1255;60642;-85
2023/03/04 08:36:51;;;;;;;16.20;13.30;;;;;;;16.67;35.38;100287.05;106608;1259;61260;-87
2023/03/04 08:39:19;;;;;;;22.30;15.00;;;;;;;16.81;35.12;100283.34;106124;1257;73803;-87
2023/03/04 08:41:48;;;;;;;18.00;14.70;;;;;;;16.79;35.03;100276.98;105907;1260;63798;-86
2023/03/04 08:44:16;;;;;;;17.80;15.90;;;;;;;16.51;35.30;100274.80;106285;1257;72608;-85
2023/03/04 08:46:45;;;;;;;20.60;15.10;;;;;;;16.31;35.55;100270.41;106135;1257;60490;-86
2023/03/04 08:49:17;;;;;;;18.30;15.40;;;;;;;16.04;35.57;100271.70;106463;1257;61194;-85
2023/03/04 08:51:45;;;;;;;17.30;13.30;;;;;;;15.82;35.78;100269.92;106026;1253;73820;-87
2023/03/04 08:54:13;;;;;;;20.40;15.80;;;;;;;15.68;36.17;100263.05;107214;1258;63827;-84
2023/03/04 08:56:43;;;;;;;21.80;16.10;;;;;;;15.58;36.50;100260.92;107179;1257;72257;-83
2023/03/04 08:59:12;;;;;;;21.70;15.20;;;;;;;15.50;36.60;100259.79;106595;1254;60549;-89
2023/03/04 09:01:40;;;;;;;25.30;16.10;;;;;;;15.51;36.70;100259.23;106281;1257;60409;-89
2023/03/04 09:04:10;;;;;;;19.70;14.90;;;;;;;15.61;36.71;100259.43;106634;1253;74799;-87
2023/03/04 09:06:39;;;;;;;19.20;14.40;;;;;;;15.68;36.46;100254.40;107605;1253;63970;-85
2023/03/04 09:09:12;;;;;;;22.20;16.30;;;;;;;15.71;36.43;100249.73;106735;1258;72354;-86
2023/03/04 09:11:41;;;;;;;26.70;16.70;;;;;;;15.80;36.41;100250.54;106318;1254;60492;-86
2023/03/04 09:14:11;;;;;;;25.60;17.90;;;;;;;15.91;36.62;100252.04;109424;1254;61770;-87
2023/03/04 09:16:41;;;;;;;23.60;16.60;;;;;;;16.03;36.41;100246.81;109537;1258;73966;-87
2023/03/04 09:19:09;;;;;;;16.80;13.80;;;;;;;16.03;36.05;100242.21;109415;1254;63697;-87
2023/03/04 09:21:39;;;;;;;24.80;14.30;;;;;;;15.80;36.00;100241.05;109395;1259;72522;-85
2023/03/04 09:24:07;;;;;;;16.30;13.30;;;;;;;15.60;36.56;100237.11;108938;1254;60346;-86
2023/03/04 09:26:36;;;;;;;16.30;12.90;;;;;;;15.70;36.84;100235.02;109415;1256;59979;-87
2023/03/04 09:29:06;;;;;;;14.70;12.50;;;;;;;15.88;36.22;100234.30;109271;1257;73887;-85
2023/03/04 09:31:34;;;;;;;16.50;11.50;;;;;;;16.09;36.12;100233.01;109212;1261;63756;-85
2023/03/04 09:34:05;;;;;;;18.70;13.70;;;;;;;16.28;35.75;100228.33;109379;1255;72576;-85
2023/03/04 09:36:33;;;;;;;15.90;12.80;;;;;;;16.32;35.28;100222.26;109381;1256;60363;-84
2023/03/04 09:39:06;;;;;;;14.50;12.00;;;;;;;16.36;35.28;100218.80;109269;1256;60376;-85
2023/03/04 09:41:46;;;;;;;16.80;12.00;;;;;;;16.29;35.19;100207.06;109297;1254;73528;-86
2023/03/04 09:44:17;;;;;;;17.20;12.10;;;;;;;16.16;34.97;100199.27;108923;1254;64205;-84
2023/03/04 09:46:46;;;;;;;14.60;12.10;;;;;;;16.00;35.41;100187.11;108187;1259;72492;-86
2023/03/04 09:49:14;;;;;;;13.30;10.80;;;;;;;16.05;35.38;100183.27;106352;1255;61056;-85
2023/03/04 09:51:58;;;;;;;14.00;11.40;;;;;;;16.04;35.15;100171.88;106184;1254;61299;-87
2023/03/04 09:55:02;;;;;;;14.40;10.20;;;;;;;15.88;35.10;100175.29;106630;1259;73525;-86
2023/03/04 09:59:12;;;;;;;17.70;12.10;;;;;;;15.86;35.56;100173.04;106375;1291;612877;-87
2023/03/04 10:01:48;;;;;;;12.40;9.40;;;;;;;16.20;34.74;100160.23;107702;1272;60962;-86
2023/03/04 10:04:29;;;;;;;15.40;9.50;;;;;;;16.22;34.16;100151.05;108444;1272;60191;-87
2023/03/04 10:07:22;;;;;;;13.60;10.50;;;;;;;16.17;34.27;100147.83;105210;1272;73073;-86
2023/03/04 10:09:59;;;;;;;12.20;10.10;;;;;;;16.18;34.30;100148.58;105348;1269;63906;-87
2023/03/04 10:12:29;;;;;;;13.70;10.00;;;;;;;16.26;34.26;100133.75;104679;1267;817700;-87
2023/03/04 10:15:06;;;;;;;13.60;9.90;;;;;;;16.39;34.12;100128.70;105340;1267;61129;-85
2023/03/04 10:17:41;;;;;;;15.00;10.20;;;;;;;16.57;33.47;100117.99;105310;1266;61190;-84
2023/03/04 10:20:28;;;;;;;16.20;11.10;;;;;;;16.63;32.62;100109.21;106047;1267;72129;-87
2023/03/04 10:22:58;;;;;;;14.50;11.10;;;;;;;16.63;33.07;100104.08;106419;1266;64718;-85
2023/03/04 10:25:28;;;;;;;15.40;12.10;;;;;;;16.65;33.31;100098.41;106255;1265;73822;-86
2023/03/04 10:28:01;;;;;;;19.80;13.10;;;;;;;16.59;33.68;100101.08;106450;1266;61408;-85
2023/03/04 10:30:29;;;;;;;19.60;14.70;;;;;;;16.74;33.49;100092.28;106328;1266;60330;-86
2023/03/04 10:32:56;;;;;;;17.60;13.30;;;;;;;16.86;32.86;100086.89;106254;1266;73991;-85
2023/03/04 10:35:26;;;;;;;14.20;11.60;;;;;;;16.86;32.89;100081.23;106269;1269;62717;-86
2023/03/04 10:37:54;;;;;;;14.40;9.90;;;;;;;16.89;32.59;100076.90;106269;1257;72289;-87
2023/03/04 10:40:24;;;;;;;12.60;9.20;;;;;;;16.71;32.55;100075.23;106725;1262;61246;-85
2023/03/04 10:42:51;;;;;;;17.10;8.70;;;;;;;16.47;32.88;100078.02;106462;1256;59944;-86
2023/03/04 10:45:29;;;;;;;9.70;8.70;;;;;;;16.35;33.22;100076.43;106550;1257;74132;-88
2023/03/04 10:47:57;;;;;;;11.70;8.10;;;;;;;16.27;32.56;100076.02;106142;1256;64622;-86
2023/03/04 10:50:26;;;;;;;15.60;9.20;;;;;;;15.92;32.92;100070.71;106154;1257;73468;-87
2023/03/04 10:52:54;;;;;;;23.30;12.00;;;;;;;15.66;33.84;100071.79;106174;1255;60025;-86
2023/03/04 10:55:27;;;;;;;12.70;10.20;;;;;;;15.38;34.30;100067.67;107007;1260;61098;-88
2023/03/04 10:58:05;;;;;;;10.80;8.80;;;;;;;15.04;35.08;100053.04;106253;1259;74040;-89
2023/03/04 11:00:33;;;;;;;13.20;8.60;;;;;;;14.80;35.19;100049.16;106107;1258;64787;-87
2023/03/04 11:03:30;;;;;;;12.70;8.50;;;;;;;14.62;34.54;100047.67;106555;1256;72788;-86
2023/03/04 11:06:16;;;;;;;17.00;8.20;;;;;;;14.34;34.33;100041.39;107592;1250;60573;-85
2023/03/04 11:08:58;;;;;;;12.80;8.90;;;;;;;14.03;35.08;100037.39;109831;1251;60296;-87
2023/03/04 11:11:37;;;;;;;11.00;8.70;;;;;;;13.89;35.62;100033.40;109886;1250;72852;-86
2023/03/04 11:14:35;;;;;;;13.80;8.40;;;;;;;13.78;35.06;100031.33;109826;1251;63588;-87
2023/03/04 11:17:25;;;;;;;9.20;8.20;;;;;;;13.58;35.29;100032.45;109806;1251;71648;-86
2023/03/04 11:20:09;;;;;;;15.20;8.10;;;;;;;13.40;35.90;100026.39;109040;1257;60239;-87
2023/03/04 11:22:38;;;;;;;16.50;8.60;;;;;;;13.32;35.96;100019.69;109390;1256;60256;-86
2023/03/04 11:25:10;;;;;;;10.30;7.80;;;;;;;13.35;35.93;100019.96;109299;1257;72915;-84